Terminal Aerodrome Forecast
Issued by NWS Sterling, VA

Home | Current Version | Previous Version | Text Only | Print | Product List | Glossary On
Versions: 1 2 3 4 5 6 7 8 9 10 11 12 13 14 15 16 17 18 19 20 21 22
530
FTUS41 KLWX 140533
TAFBWI
TAF
KBWI 140533Z 1406/1512 30011G18KT P6SM FEW250
     FM141200 30010KT P6SM FEW250
     FM142100 36005KT P6SM FEW200
     FM142300 08004KT P6SM SCT150
     FM150300 VRB03KT P6SM OVC110
     FM150900 14006KT 5SM -SN OVC050=

USA.gov is the U.S. government's official web portal to all federal, state and local government web resources and services.